createdAt,value
2018-07-30T00:02:56.657Z,4.13
2018-07-30T00:09:01.993Z,3.80
2018-07-30T00:15:07.483Z,3.97
2018-07-30T00:21:12.941Z,4.67
2018-07-30T00:27:18.467Z,4.30
2018-07-30T00:33:23.914Z,3.90
2018-07-30T00:39:29.376Z,4.27
2018-07-30T00:45:34.857Z,4.57
2018-07-30T00:51:40.487Z,4.27
2018-07-30T00:57:46.325Z,4.17
2018-07-30T01:03:52.102Z,4.60
2018-07-30T01:09:57.957Z,4.80
2018-07-30T01:16:03.770Z,4.03
2018-07-30T01:22:09.602Z,4.33
2018-07-30T01:28:15.383Z,4.30
2018-07-30T01:34:21.194Z,4.30
2018-07-30T01:40:27.088Z,4.37
2018-07-30T01:46:32.950Z,4.20
2018-07-30T01:52:38.717Z,4.20
2018-07-30T01:58:44.566Z,4.50
2018-07-30T02:04:50.428Z,4.80
2018-07-30T02:10:55.892Z,4.80
2018-07-30T02:17:01.635Z,5.13
2018-07-30T02:23:07.842Z,5.20
2018-07-30T02:29:13.301Z,4.50
2018-07-30T02:35:18.828Z,4.73
2018-07-30T02:41:24.256Z,4.30
2018-07-30T02:47:29.707Z,5.00
2018-07-30T02:53:35.262Z,5.80
2018-07-30T02:59:40.736Z,5.57
2018-07-30T03:05:46.212Z,5.80
2018-07-30T03:11:51.657Z,5.97
2018-07-30T03:17:57.116Z,5.90
2018-07-30T03:24:02.634Z,5.80
2018-07-30T03:30:10.431Z,5.40
2018-07-30T03:36:15.900Z,5.50
2018-07-30T03:42:21.452Z,5.63
2018-07-30T03:48:26.855Z,5.60
2018-07-30T03:54:32.371Z,4.40
2018-07-30T04:00:37.824Z,5.03
2018-07-30T04:06:43.255Z,4.90
2018-07-30T04:12:48.802Z,5.00
2018-07-30T04:18:54.222Z,4.40
2018-07-30T04:24:59.689Z,4.70
2018-07-30T04:31:05.330Z,5.10
2018-07-30T04:37:10.811Z,5.03
2018-07-30T04:43:16.752Z,4.83
2018-07-30T04:49:22.608Z,6.00
2018-07-30T04:55:28.466Z,6.50
2018-07-30T05:01:34.252Z,7.00
2018-07-30T05:07:40.119Z,6.40
2018-07-30T05:13:45.948Z,7.47
2018-07-30T05:19:51.758Z,7.70
2018-07-30T05:25:57.625Z,7.47
2018-07-30T05:32:03.493Z,7.67
2018-07-30T05:38:09.348Z,7.23
2018-07-30T05:44:15.155Z,7.23
2018-07-30T05:50:20.992Z,7.20
2018-07-30T05:56:26.851Z,6.23
2018-07-30T06:02:32.631Z,6.53
2018-07-30T06:08:38.486Z,6.40
2018-07-30T06:14:44.485Z,6.77
2018-07-30T06:20:50.371Z,7.00
2018-07-30T06:26:56.201Z,6.23
2018-07-30T06:33:02.008Z,5.90
2018-07-30T06:39:10.206Z,4.90
2018-07-30T06:45:15.777Z,4.63
2018-07-30T06:51:21.295Z,4.13
2018-07-30T06:57:26.791Z,4.43
2018-07-30T07:03:32.303Z,4.37
2018-07-30T07:09:39.067Z,4.70
2018-07-30T07:15:45.014Z,4.47
2018-07-30T07:21:50.816Z,5.10
2018-07-30T07:27:56.692Z,4.40
2018-07-30T07:34:02.525Z,4.20
2018-07-30T07:40:09.169Z,4.63
2018-07-30T07:46:14.994Z,4.17
2018-07-30T07:52:20.882Z,4.07
2018-07-30T07:58:26.833Z,4.10
2018-07-30T08:04:32.651Z,4.60
2018-07-30T08:10:38.597Z,4.17
2018-07-30T08:16:44.494Z,4.47
2018-07-30T08:22:50.511Z,5.03
2018-07-30T08:28:56.513Z,3.73
2018-07-30T08:35:02.423Z,4.20
2018-07-30T08:41:08.390Z,4.00
2018-07-30T08:47:14.389Z,3.60
2018-07-30T08:53:20.372Z,3.30
2018-07-30T08:59:26.249Z,3.50
2018-07-30T09:05:32.141Z,3.57
2018-07-30T09:11:38.400Z,4.20
2018-07-30T09:17:44.328Z,4.17
2018-07-30T09:23:50.312Z,3.87
2018-07-30T09:29:56.233Z,3.73
2018-07-30T09:36:02.202Z,3.67
2018-07-30T09:42:08.111Z,4.00
2018-07-30T09:48:14.074Z,3.67
2018-07-30T09:54:20.018Z,3.40
2018-07-30T10:00:30.946Z,4.30
2018-07-30T10:06:36.983Z,4.20
2018-07-30T10:12:42.957Z,4.10
2018-07-30T10:18:48.886Z,4.20
2018-07-30T10:24:54.820Z,4.30
2018-07-30T10:31:00.790Z,3.90
2018-07-30T10:37:06.724Z,4.10
2018-07-30T10:43:12.652Z,3.47
2018-07-30T10:49:18.465Z,4.10
2018-07-30T10:55:24.398Z,3.50
2018-07-30T11:01:30.290Z,3.87
2018-07-30T11:07:36.173Z,3.53
2018-07-30T11:13:42.161Z,4.10
2018-07-30T11:19:48.142Z,4.20
2018-07-30T11:25:54.085Z,3.90
2018-07-30T11:32:00.019Z,4.30
2018-07-30T11:38:05.904Z,4.00
2018-07-30T11:44:11.922Z,3.70
2018-07-30T11:50:17.796Z,3.90
2018-07-30T11:56:23.813Z,4.57
2018-07-30T12:02:29.712Z,4.00
2018-07-30T12:08:35.636Z,4.30
2018-07-30T12:14:41.647Z,3.97
2018-07-30T12:20:47.505Z,4.30
2018-07-30T12:26:53.434Z,3.60
2018-07-30T12:32:59.280Z,3.73
2018-07-30T12:39:07.949Z,3.90
2018-07-30T12:45:13.893Z,3.60
2018-07-30T12:51:19.804Z,3.63
2018-07-30T12:57:25.665Z,4.30
2018-07-30T13:03:31.553Z,4.27
2018-07-30T13:09:37.466Z,3.60
2018-07-30T13:15:43.253Z,4.00
2018-07-30T13:21:49.167Z,3.53
2018-07-30T13:27:54.648Z,3.93
2018-07-30T13:34:00.390Z,4.00
2018-07-30T13:40:06.357Z,3.47
2018-07-30T13:46:11.938Z,3.47
2018-07-30T13:52:17.463Z,4.10
2018-07-30T13:58:23.368Z,3.60
2018-07-30T14:04:29.560Z,3.43
2018-07-30T14:10:35.317Z,3.70
2018-07-30T14:16:41.530Z,3.93
2018-07-30T14:22:47.520Z,3.53
2018-07-30T14:28:53.397Z,4.27
2018-07-30T14:34:59.193Z,3.93
2018-07-30T14:41:04.663Z,3.60
2018-07-30T14:47:10.413Z,3.60
2018-07-30T14:53:16.240Z,3.60
2018-07-30T14:59:22.197Z,3.30
2018-07-30T15:05:27.867Z,3.67
2018-07-30T15:11:33.353Z,3.00
2018-07-30T15:17:38.885Z,3.80
2018-07-30T15:23:44.393Z,3.50
2018-07-30T15:29:50.030Z,3.83
2018-07-30T15:35:55.737Z,3.80
2018-07-30T15:42:01.215Z,3.80
2018-07-30T15:48:06.666Z,3.50
2018-07-30T15:54:12.120Z,3.57
2018-07-30T16:00:17.622Z,3.90
2018-07-30T16:06:23.094Z,3.77
2018-07-30T16:12:28.586Z,3.60
2018-07-30T16:18:34.069Z,3.50
2018-07-30T16:24:39.571Z,3.50
2018-07-30T16:30:45.146Z,4.00
2018-07-30T16:36:50.542Z,4.00
2018-07-30T16:42:56.061Z,4.73
2018-07-30T16:49:01.585Z,3.77
2018-07-30T16:55:07.753Z,3.63
2018-07-30T17:01:13.684Z,3.97
2018-07-30T17:07:19.742Z,4.17
2018-07-30T17:13:25.698Z,4.10
2018-07-30T17:19:31.769Z,3.87
2018-07-30T17:25:37.658Z,4.27
2018-07-30T17:31:43.621Z,4.00
2018-07-30T17:37:49.539Z,4.90
2018-07-30T17:43:55.472Z,4.03
2018-07-30T17:50:01.328Z,4.30
2018-07-30T17:56:07.178Z,3.90
2018-07-30T18:02:13.099Z,4.57
2018-07-30T18:08:18.882Z,4.10
2018-07-30T18:14:24.835Z,3.77
2018-07-30T18:20:30.669Z,3.73
2018-07-30T18:26:36.572Z,4.60
2018-07-30T18:32:42.447Z,3.87
2018-07-30T18:38:48.333Z,4.13
2018-07-30T18:44:54.280Z,3.80
2018-07-30T18:50:59.768Z,4.10
2018-07-30T18:57:05.293Z,4.30
2018-07-30T19:03:10.776Z,3.70
2018-07-30T19:09:16.257Z,4.17
2018-07-30T19:15:21.751Z,4.53
2018-07-30T19:21:27.213Z,3.73
2018-07-30T19:27:32.712Z,4.40
2018-07-30T19:33:38.164Z,3.97
2018-07-30T19:39:43.665Z,4.33
2018-07-30T19:45:49.117Z,3.87
2018-07-30T19:51:54.593Z,4.40
2018-07-30T19:58:00.170Z,4.10
2018-07-30T20:04:05.580Z,4.37
2018-07-30T20:10:11.039Z,4.20
2018-07-30T20:16:16.493Z,4.50
2018-07-30T20:22:22.047Z,4.43
2018-07-30T20:28:28.228Z,4.30
2018-07-30T20:34:33.697Z,4.30
2018-07-30T20:40:39.272Z,4.30
2018-07-30T20:46:44.732Z,5.20
2018-07-30T20:52:50.456Z,4.93
2018-07-30T20:58:55.996Z,5.53
2018-07-30T21:05:01.407Z,4.27
2018-07-30T21:11:06.908Z,4.40
2018-07-30T21:17:12.429Z,4.50
2018-07-30T21:23:17.877Z,4.23
2018-07-30T21:29:23.347Z,4.60
2018-07-30T21:35:28.799Z,4.13
2018-07-30T21:41:35.403Z,4.77
2018-07-30T21:47:40.843Z,4.50
2018-07-30T21:53:46.337Z,4.50
2018-07-30T21:59:51.770Z,4.73
2018-07-30T22:05:59.303Z,4.67
2018-07-30T22:12:04.810Z,5.50
2018-07-30T22:18:10.303Z,4.67
2018-07-30T22:24:15.785Z,4.47
2018-07-30T22:30:21.278Z,5.30
2018-07-30T22:36:26.751Z,5.37
2018-07-30T22:42:32.239Z,5.10
2018-07-30T22:48:37.453Z,5.00
2018-07-30T22:54:42.748Z,4.80
2018-07-30T23:00:48.246Z,5.50
2018-07-30T23:06:53.725Z,5.10
2018-07-30T23:12:59.194Z,5.60
2018-07-30T23:19:04.666Z,5.37
2018-07-30T23:25:10.164Z,4.87
2018-07-30T23:31:15.671Z,4.70
2018-07-30T23:37:21.247Z,5.30
2018-07-30T23:43:26.618Z,5.50
2018-07-30T23:49:32.112Z,5.60
2018-07-30T23:55:37.626Z,5.30
